sensor_id;sensor_type;location;lat;lon;timestamp;temperature;humidity
9730;DHT22;4904;49.152;11.004;2023-07-31T00:02:04;15.60;99.90
9730;DHT22;4904;49.152;11.004;2023-07-31T00:04:32;15.60;99.90
9730;DHT22;4904;49.152;11.004;2023-07-31T00:06:59;15.50;99.90
9730;DHT22;4904;49.152;11.004;2023-07-31T00:09:27;15.60;99.90
9730;DHT22;4904;49.152;11.004;2023-07-31T00:11:54;15.50;99.90
9730;DHT22;4904;49.152;11.004;2023-07-31T00:14:21;15.40;99.90
9730;DHT22;4904;49.152;11.004;2023-07-31T00:16:48;15.40;99.90
9730;DHT22;4904;49.152;11.004;2023-07-31T00:19:15;15.40;99.90
9730;DHT22;4904;49.152;11.004;2023-07-31T00:21:42;15.50;99.90
9730;DHT22;4904;49.152;11.004;2023-07-31T00:24:08;15.60;99.90
9730;DHT22;4904;49.152;11.004;2023-07-31T00:26:37;15.70;99.90
9730;DHT22;4904;49.152;11.004;2023-07-31T00:29:04;15.70;99.90
9730;DHT22;4904;49.152;11.004;2023-07-31T00:31:31;15.80;99.90
9730;DHT22;4904;49.152;11.004;2023-07-31T00:33:58;15.80;99.90
9730;DHT22;4904;49.152;11.004;2023-07-31T00:36:25;15.80;99.90
9730;DHT22;4904;49.152;11.004;2023-07-31T00:38:52;15.70;99.90
9730;DHT22;4904;49.152;11.004;2023-07-31T00:41:19;15.70;99.90
9730;DHT22;4904;49.152;11.004;2023-07-31T00:43:47;15.50;99.90
9730;DHT22;4904;49.152;11.004;2023-07-31T00:46:14;15.20;99.90
9730;DHT22;4904;49.152;11.004;2023-07-31T00:48:41;15.10;99.90
9730;DHT22;4904;49.152;11.004;2023-07-31T00:51:09;15.00;99.90
9730;DHT22;4904;49.152;11.004;2023-07-31T00:53:37;15.10;99.90
9730;DHT22;4904;49.152;11.004;2023-07-31T00:56:08;15.10;99.90
9730;DHT22;4904;49.152;11.004;2023-07-31T00:58:35;15.20;99.90
9730;DHT22;4904;49.152;11.004;2023-07-31T01:01:03;15.20;99.90
9730;DHT22;4904;49.152;11.004;2023-07-31T01:03:30;15.20;99.90
9730;DHT22;4904;49.152;11.004;2023-07-31T01:06:14;15.20;99.90
9730;DHT22;4904;49.152;11.004;2023-07-31T01:08:54;15.20;99.90
9730;DHT22;4904;49.152;11.004;2023-07-31T01:11:25;15.20;99.90
9730;DHT22;4904;49.152;11.004;2023-07-31T01:13:54;15.20;99.90
9730;DHT22;4904;49.152;11.004;2023-07-31T01:16:26;15.20;99.90
9730;DHT22;4904;49.152;11.004;2023-07-31T01:18:52;15.10;99.90
9730;DHT22;4904;49.152;11.004;2023-07-31T01:21:37;15.10;99.90
9730;DHT22;4904;49.152;11.004;2023-07-31T01:24:23;15.00;99.90
9730;DHT22;4904;49.152;11.004;2023-07-31T01:27:00;14.90;99.90
9730;DHT22;4904;49.152;11.004;2023-07-31T01:29:34;14.80;99.90
9730;DHT22;4904;49.152;11.004;2023-07-31T01:32:05;14.80;99.90
9730;DHT22;4904;49.152;11.004;2023-07-31T01:34:33;14.70;99.90
9730;DHT22;4904;49.152;11.004;2023-07-31T01:37:01;14.80;99.90
9730;DHT22;4904;49.152;11.004;2023-07-31T01:39:28;14.80;99.90
9730;DHT22;4904;49.152;11.004;2023-07-31T01:41:56;14.70;99.90
9730;DHT22;4904;49.152;11.004;2023-07-31T01:44:24;14.60;99.90
9730;DHT22;4904;49.152;11.004;2023-07-31T01:46:50;14.70;99.90
9730;DHT22;4904;49.152;11.004;2023-07-31T01:49:17;14.70;99.90
9730;DHT22;4904;49.152;11.004;2023-07-31T01:51:44;14.70;99.90
9730;DHT22;4904;49.152;11.004;2023-07-31T01:54:11;14.70;99.90
9730;DHT22;4904;49.152;11.004;2023-07-31T01:56:38;14.70;99.90
9730;DHT22;4904;49.152;11.004;2023-07-31T01:59:07;14.70;99.90
9730;DHT22;4904;49.152;11.004;2023-07-31T02:01:33;14.70;99.90
9730;DHT22;4904;49.152;11.004;2023-07-31T02:04:00;14.80;99.90
9730;DHT22;4904;49.152;11.004;2023-07-31T02:06:29;14.80;99.90
9730;DHT22;4904;49.152;11.004;2023-07-31T02:08:56;14.80;99.90
9730;DHT22;4904;49.152;11.004;2023-07-31T02:11:23;14.80;99.90
9730;DHT22;4904;49.152;11.004;2023-07-31T02:13:50;14.70;99.90
9730;DHT22;4904;49.152;11.004;2023-07-31T02:16:18;14.70;99.90
9730;DHT22;4904;49.152;11.004;2023-07-31T02:18:45;14.70;99.90
9730;DHT22;4904;49.152;11.004;2023-07-31T02:21:12;14.70;99.90
9730;DHT22;4904;49.152;11.004;2023-07-31T02:23:39;14.60;99.90
9730;DHT22;4904;49.152;11.004;2023-07-31T02:26:05;14.60;99.90
9730;DHT22;4904;49.152;11.004;2023-07-31T02:28:33;14.70;99.90
9730;DHT22;4904;49.152;11.004;2023-07-31T02:31:00;14.60;99.90
9730;DHT22;4904;49.152;11.004;2023-07-31T02:33:28;14.60;99.90
9730;DHT22;4904;49.152;11.004;2023-07-31T02:35:55;14.70;99.90
9730;DHT22;4904;49.152;11.004;2023-07-31T02:38:22;14.80;99.90
9730;DHT22;4904;49.152;11.004;2023-07-31T02:40:48;14.90;99.90
9730;DHT22;4904;49.152;11.004;2023-07-31T02:43:15;14.90;99.90
9730;DHT22;4904;49.152;11.004;2023-07-31T02:45:42;14.80;99.90
9730;DHT22;4904;49.152;11.004;2023-07-31T02:48:09;14.90;99.90
9730;DHT22;4904;49.152;11.004;2023-07-31T02:50:37;14.70;99.90
9730;DHT22;4904;49.152;11.004;2023-07-31T02:53:04;14.70;99.90
9730;DHT22;4904;49.152;11.004;2023-07-31T02:55:31;14.70;99.90
9730;DHT22;4904;49.152;11.004;2023-07-31T02:57:58;14.50;99.90
9730;DHT22;4904;49.152;11.004;2023-07-31T03:00:25;14.50;99.90
9730;DHT22;4904;49.152;11.004;2023-07-31T03:02:52;14.50;99.90
9730;DHT22;4904;49.152;11.004;2023-07-31T03:05:19;14.50;99.90
9730;DHT22;4904;49.152;11.004;2023-07-31T03:07:47;14.50;99.90
9730;DHT22;4904;49.152;11.004;2023-07-31T03:10:14;14.50;99.90
9730;DHT22;4904;49.152;11.004;2023-07-31T03:12:41;14.50;99.90
9730;DHT22;4904;49.152;11.004;2023-07-31T03:15:09;14.50;99.90
9730;DHT22;4904;49.152;11.004;2023-07-31T03:17:36;14.50;99.90
9730;DHT22;4904;49.152;11.004;2023-07-31T03:20:03;14.30;99.90
9730;DHT22;4904;49.152;11.004;2023-07-31T03:22:30;14.30;99.90
9730;DHT22;4904;49.152;11.004;2023-07-31T03:24:59;14.40;99.90
9730;DHT22;4904;49.152;11.004;2023-07-31T03:27:26;14.30;99.90
9730;DHT22;4904;49.152;11.004;2023-07-31T03:29:53;14.30;99.90
9730;DHT22;4904;49.152;11.004;2023-07-31T03:32:20;14.30;99.90
9730;DHT22;4904;49.152;11.004;2023-07-31T03:34:47;14.40;99.90
9730;DHT22;4904;49.152;11.004;2023-07-31T03:37:14;14.40;99.90
9730;DHT22;4904;49.152;11.004;2023-07-31T03:39:41;14.40;99.90
9730;DHT22;4904;49.152;11.004;2023-07-31T03:42:09;14.40;99.90
9730;DHT22;4904;49.152;11.004;2023-07-31T03:44:36;14.40;99.90
9730;DHT22;4904;49.152;11.004;2023-07-31T03:47:03;14.40;99.90
9730;DHT22;4904;49.152;11.004;2023-07-31T03:49:31;14.50;99.90
9730;DHT22;4904;49.152;11.004;2023-07-31T03:51:58;14.50;99.90
9730;DHT22;4904;49.152;11.004;2023-07-31T03:54:25;14.60;99.90
9730;DHT22;4904;49.152;11.004;2023-07-31T03:56:52;14.60;99.90
9730;DHT22;4904;49.152;11.004;2023-07-31T03:59:20;14.70;99.90
9730;DHT22;4904;49.152;11.004;2023-07-31T04:01:47;14.60;99.90
9730;DHT22;4904;49.152;11.004;2023-07-31T04:04:15;14.50;99.90
9730;DHT22;4904;49.152;11.004;2023-07-31T04:06:42;14.40;99.90
9730;DHT22;4904;49.152;11.004;2023-07-31T04:09:09;14.40;99.90
9730;DHT22;4904;49.152;11.004;2023-07-31T04:11:36;14.40;99.90
9730;DHT22;4904;49.152;11.004;2023-07-31T04:14:03;14.50;99.90
9730;DHT22;4904;49.152;11.004;2023-07-31T04:16:31;14.40;99.90
9730;DHT22;4904;49.152;11.004;2023-07-31T04:18:58;14.50;99.90
9730;DHT22;4904;49.152;11.004;2023-07-31T04:21:26;14.50;99.90
9730;DHT22;4904;49.152;11.004;2023-07-31T04:23:53;14.50;99.90
9730;DHT22;4904;49.152;11.004;2023-07-31T04:26:21;14.50;99.90
9730;DHT22;4904;49.152;11.004;2023-07-31T04:28:48;14.50;99.90
9730;DHT22;4904;49.152;11.004;2023-07-31T04:31:15;14.60;99.90
9730;DHT22;4904;49.152;11.004;2023-07-31T04:33:43;14.70;99.90
9730;DHT22;4904;49.152;11.004;2023-07-31T04:36:11;14.70;99.90
9730;DHT22;4904;49.152;11.004;2023-07-31T04:38:38;14.80;99.90
9730;DHT22;4904;49.152;11.004;2023-07-31T04:41:06;14.90;99.90
9730;DHT22;4904;49.152;11.004;2023-07-31T04:43:33;14.90;99.90
9730;DHT22;4904;49.152;11.004;2023-07-31T04:46:00;14.90;99.90
9730;DHT22;4904;49.152;11.004;2023-07-31T04:48:27;14.80;99.90
9730;DHT22;4904;49.152;11.004;2023-07-31T04:50:55;14.80;99.90
9730;DHT22;4904;49.152;11.004;2023-07-31T04:53:22;14.80;99.90
9730;DHT22;4904;49.152;11.004;2023-07-31T04:55:49;14.80;99.90
9730;DHT22;4904;49.152;11.004;2023-07-31T04:58:16;14.80;99.90
9730;DHT22;4904;49.152;11.004;2023-07-31T05:00:43;14.80;99.90
9730;DHT22;4904;49.152;11.004;2023-07-31T05:03:11;14.90;99.90
9730;DHT22;4904;49.152;11.004;2023-07-31T05:05:38;14.90;99.90
9730;DHT22;4904;49.152;11.004;2023-07-31T05:08:06;15.00;99.90
9730;DHT22;4904;49.152;11.004;2023-07-31T05:10:33;15.10;99.90
9730;DHT22;4904;49.152;11.004;2023-07-31T05:13:00;15.10;99.90
9730;DHT22;4904;49.152;11.004;2023-07-31T05:15:28;15.10;99.90
9730;DHT22;4904;49.152;11.004;2023-07-31T05:17:55;15.20;99.90
9730;DHT22;4904;49.152;11.004;2023-07-31T05:20:22;15.20;99.90
9730;DHT22;4904;49.152;11.004;2023-07-31T05:22:50;15.30;99.90
9730;DHT22;4904;49.152;11.004;2023-07-31T05:25:19;15.30;99.90
9730;DHT22;4904;49.152;11.004;2023-07-31T05:27:46;15.40;99.90
9730;DHT22;4904;49.152;11.004;2023-07-31T05:30:13;15.40;99.90
9730;DHT22;4904;49.152;11.004;2023-07-31T05:32:39;15.50;99.90
9730;DHT22;4904;49.152;11.004;2023-07-31T05:35:07;15.60;99.90
9730;DHT22;4904;49.152;11.004;2023-07-31T05:37:34;15.60;99.90
9730;DHT22;4904;49.152;11.004;2023-07-31T05:40:01;15.70;99.90
9730;DHT22;4904;49.152;11.004;2023-07-31T05:42:30;15.70;99.90
9730;DHT22;4904;49.152;11.004;2023-07-31T05:44:56;15.80;99.90
9730;DHT22;4904;49.152;11.004;2023-07-31T05:47:23;15.80;99.90
9730;DHT22;4904;49.152;11.004;2023-07-31T05:49:50;15.90;99.90
9730;DHT22;4904;49.152;11.004;2023-07-31T05:52:18;16.00;99.90
9730;DHT22;4904;49.152;11.004;2023-07-31T05:54:45;16.00;99.90
9730;DHT22;4904;49.152;11.004;2023-07-31T05:57:12;16.10;99.90
9730;DHT22;4904;49.152;11.004;2023-07-31T05:59:40;16.10;99.90
9730;DHT22;4904;49.152;11.004;2023-07-31T06:02:07;16.20;99.90
9730;DHT22;4904;49.152;11.004;2023-07-31T06:04:34;16.20;99.90
9730;DHT22;4904;49.152;11.004;2023-07-31T06:07:01;16.30;99.90
9730;DHT22;4904;49.152;11.004;2023-07-31T06:09:29;16.40;99.90
9730;DHT22;4904;49.152;11.004;2023-07-31T06:11:55;16.50;99.90
9730;DHT22;4904;49.152;11.004;2023-07-31T06:14:22;16.70;99.90
9730;DHT22;4904;49.152;11.004;2023-07-31T06:16:51;16.80;99.90
9730;DHT22;4904;49.152;11.004;2023-07-31T06:19:18;16.90;99.90
9730;DHT22;4904;49.152;11.004;2023-07-31T06:21:45;17.00;99.90
9730;DHT22;4904;49.152;11.004;2023-07-31T06:24:12;17.10;99.90
9730;DHT22;4904;49.152;11.004;2023-07-31T06:26:44;17.20;99.90
9730;DHT22;4904;49.152;11.004;2023-07-31T06:29:11;17.30;99.90
9730;DHT22;4904;49.152;11.004;2023-07-31T06:31:38;17.30;99.90
9730;DHT22;4904;49.152;11.004;2023-07-31T06:34:06;17.40;99.90
9730;DHT22;4904;49.152;11.004;2023-07-31T06:36:33;17.50;99.90
9730;DHT22;4904;49.152;11.004;2023-07-31T06:39:00;17.50;99.90
9730;DHT22;4904;49.152;11.004;2023-07-31T06:41:27;17.60;99.90
9730;DHT22;4904;49.152;11.004;2023-07-31T06:43:54;17.60;99.90
9730;DHT22;4904;49.152;11.004;2023-07-31T06:46:22;17.70;99.90
9730;DHT22;4904;49.152;11.004;2023-07-31T06:48:49;17.70;99.90
9730;DHT22;4904;49.152;11.004;2023-07-31T06:51:17;17.80;99.90
9730;DHT22;4904;49.152;11.004;2023-07-31T06:53:44;17.90;99.90
9730;DHT22;4904;49.152;11.004;2023-07-31T06:56:11;17.90;99.90
9730;DHT22;4904;49.152;11.004;2023-07-31T06:58:38;17.90;99.90
9730;DHT22;4904;49.152;11.004;2023-07-31T07:01:05;17.90;99.90
9730;DHT22;4904;49.152;11.004;2023-07-31T07:03:32;17.90;99.90
9730;DHT22;4904;49.152;11.004;2023-07-31T07:05:59;17.90;99.90
9730;DHT22;4904;49.152;11.004;2023-07-31T07:08:27;18.00;99.90
9730;DHT22;4904;49.152;11.004;2023-07-31T07:10:54;18.00;99.90
9730;DHT22;4904;49.152;11.004;2023-07-31T07:13:21;18.10;99.90
9730;DHT22;4904;49.152;11.004;2023-07-31T07:15:48;18.10;99.90
9730;DHT22;4904;49.152;11.004;2023-07-31T07:18:16;18.10;99.90
9730;DHT22;4904;49.152;11.004;2023-07-31T07:20:46;18.10;99.90
9730;DHT22;4904;49.152;11.004;2023-07-31T07:23:13;18.10;99.90
9730;DHT22;4904;49.152;11.004;2023-07-31T07:25:42;18.10;99.90
9730;DHT22;4904;49.152;11.004;2023-07-31T07:28:09;18.00;99.90
9730;DHT22;4904;49.152;11.004;2023-07-31T07:30:36;18.00;99.90
9730;DHT22;4904;49.152;11.004;2023-07-31T07:33:03;18.00;99.90
9730;DHT22;4904;49.152;11.004;2023-07-31T07:35:32;17.90;99.90
9730;DHT22;4904;49.152;11.004;2023-07-31T07:38:01;17.90;99.90
9730;DHT22;4904;49.152;11.004;2023-07-31T07:40:27;17.90;99.90
9730;DHT22;4904;49.152;11.004;2023-07-31T07:42:56;17.90;99.90
9730;DHT22;4904;49.152;11.004;2023-07-31T07:45:23;17.90;99.90
9730;DHT22;4904;49.152;11.004;2023-07-31T07:47:50;18.00;99.90
9730;DHT22;4904;49.152;11.004;2023-07-31T07:50:17;18.10;99.90
9730;DHT22;4904;49.152;11.004;2023-07-31T07:52:44;18.10;99.90
9730;DHT22;4904;49.152;11.004;2023-07-31T07:55:11;18.10;99.90
9730;DHT22;4904;49.152;11.004;2023-07-31T07:57:38;18.20;99.90
9730;DHT22;4904;49.152;11.004;2023-07-31T08:00:08;18.20;99.90
9730;DHT22;4904;49.152;11.004;2023-07-31T08:02:36;18.20;99.90
9730;DHT22;4904;49.152;11.004;2023-07-31T08:05:03;18.30;99.90
9730;DHT22;4904;49.152;11.004;2023-07-31T08:07:30;18.30;99.90
9730;DHT22;4904;49.152;11.004;2023-07-31T08:09:57;18.30;99.90
9730;DHT22;4904;49.152;11.004;2023-07-31T08:12:24;18.30;99.90
9730;DHT22;4904;49.152;11.004;2023-07-31T08:14:51;18.40;99.90
9730;DHT22;4904;49.152;11.004;2023-07-31T08:17:20;18.50;99.90
9730;DHT22;4904;49.152;11.004;2023-07-31T08:19:47;18.50;99.90
9730;DHT22;4904;49.152;11.004;2023-07-31T08:22:14;18.40;99.90
9730;DHT22;4904;49.152;11.004;2023-07-31T08:24:41;18.40;99.90
9730;DHT22;4904;49.152;11.004;2023-07-31T08:27:08;18.40;99.90
9730;DHT22;4904;49.152;11.004;2023-07-31T08:29:35;18.40;99.90
9730;DHT22;4904;49.152;11.004;2023-07-31T08:32:02;18.50;99.90
9730;DHT22;4904;49.152;11.004;2023-07-31T08:34:31;18.60;99.90
9730;DHT22;4904;49.152;11.004;2023-07-31T08:36:58;18.60;99.90
9730;DHT22;4904;49.152;11.004;2023-07-31T08:39:25;18.60;99.90
9730;DHT22;4904;49.152;11.004;2023-07-31T08:41:58;18.70;99.90
9730;DHT22;4904;49.152;11.004;2023-07-31T08:44:25;18.80;99.90
9730;DHT22;4904;49.152;11.004;2023-07-31T08:46:52;18.80;99.90
9730;DHT22;4904;49.152;11.004;2023-07-31T08:49:20;18.90;99.90
9730;DHT22;4904;49.152;11.004;2023-07-31T08:51:52;18.90;99.90
9730;DHT22;4904;49.152;11.004;2023-07-31T08:54:20;18.90;99.90
9730;DHT22;4904;49.152;11.004;2023-07-31T08:56:48;18.90;99.90
9730;DHT22;4904;49.152;11.004;2023-07-31T08:59:16;18.90;99.90
9730;DHT22;4904;49.152;11.004;2023-07-31T09:01:49;19.00;99.90
9730;DHT22;4904;49.152;11.004;2023-07-31T09:04:19;19.20;99.90
9730;DHT22;4904;49.152;11.004;2023-07-31T09:06:47;19.20;99.90
9730;DHT22;4904;49.152;11.004;2023-07-31T09:09:16;19.40;99.90
9730;DHT22;4904;49.152;11.004;2023-07-31T09:11:43;19.30;99.90
9730;DHT22;4904;49.152;11.004;2023-07-31T09:14:10;19.50;99.90
9730;DHT22;4904;49.152;11.004;2023-07-31T09:16:51;19.20;99.90
9730;DHT22;4904;49.152;11.004;2023-07-31T09:19:25;19.40;99.90
9730;DHT22;4904;49.152;11.004;2023-07-31T09:21:52;19.30;99.90
9730;DHT22;4904;49.152;11.004;2023-07-31T09:24:27;19.40;99.90
9730;DHT22;4904;49.152;11.004;2023-07-31T09:26:54;19.60;99.90
9730;DHT22;4904;49.152;11.004;2023-07-31T09:29:22;19.70;99.90
9730;DHT22;4904;49.152;11.004;2023-07-31T09:31:50;19.70;99.90
9730;DHT22;4904;49.152;11.004;2023-07-31T09:34:17;19.80;99.90
9730;DHT22;4904;49.152;11.004;2023-07-31T09:36:46;19.90;99.90
9730;DHT22;4904;49.152;11.004;2023-07-31T09:39:15;19.90;99.90
9730;DHT22;4904;49.152;11.004;2023-07-31T09:41:45;20.00;99.90
9730;DHT22;4904;49.152;11.004;2023-07-31T09:44:12;20.00;99.90
9730;DHT22;4904;49.152;11.004;2023-07-31T09:46:39;20.00;99.90
9730;DHT22;4904;49.152;11.004;2023-07-31T09:49:08;20.10;99.90
9730;DHT22;4904;49.152;11.004;2023-07-31T09:51:36;20.10;99.90
9730;DHT22;4904;49.152;11.004;2023-07-31T09:54:10;20.20;99.90
9730;DHT22;4904;49.152;11.004;2023-07-31T09:56:41;20.20;99.90
9730;DHT22;4904;49.152;11.004;2023-07-31T09:59:11;20.20;99.90
9730;DHT22;4904;49.152;11.004;2023-07-31T10:01:40;20.30;99.90
9730;DHT22;4904;49.152;11.004;2023-07-31T10:04:08;20.40;99.90
9730;DHT22;4904;49.152;11.004;2023-07-31T10:06:36;20.50;99.90
9730;DHT22;4904;49.152;11.004;2023-07-31T10:09:05;20.50;99.90
9730;DHT22;4904;49.152;11.004;2023-07-31T10:11:35;20.40;99.90
9730;DHT22;4904;49.152;11.004;2023-07-31T10:14:04;20.40;99.90
9730;DHT22;4904;49.152;11.004;2023-07-31T10:16:34;20.40;99.90
9730;DHT22;4904;49.152;11.004;2023-07-31T10:19:01;20.40;99.90
9730;DHT22;4904;49.152;11.004;2023-07-31T10:21:30;20.30;99.90
9730;DHT22;4904;49.152;11.004;2023-07-31T10:24:03;20.10;99.90
9730;DHT22;4904;49.152;11.004;2023-07-31T10:26:31;20.30;99.90
9730;DHT22;4904;49.152;11.004;2023-07-31T10:28:58;20.50;99.90
9730;DHT22;4904;49.152;11.004;2023-07-31T10:31:27;20.50;99.90
9730;DHT22;4904;49.152;11.004;2023-07-31T10:33:57;20.50;99.90
9730;DHT22;4904;49.152;11.004;2023-07-31T10:36:25;20.50;99.90
9730;DHT22;4904;49.152;11.004;2023-07-31T10:38:52;20.50;99.90
9730;DHT22;4904;49.152;11.004;2023-07-31T10:41:28;20.60;99.90
9730;DHT22;4904;49.152;11.004;2023-07-31T10:43:57;20.70;99.90
9730;DHT22;4904;49.152;11.004;2023-07-31T10:46:24;20.60;99.90
9730;DHT22;4904;49.152;11.004;2023-07-31T10:49:00;20.70;99.90
9730;DHT22;4904;49.152;11.004;2023-07-31T10:51:33;20.70;99.90
9730;DHT22;4904;49.152;11.004;2023-07-31T10:54:11;20.70;99.90
9730;DHT22;4904;49.152;11.004;2023-07-31T10:56:40;20.80;99.90
9730;DHT22;4904;49.152;11.004;2023-07-31T10:59:06;20.80;99.90
9730;DHT22;4904;49.152;11.004;2023-07-31T11:01:52;20.70;99.90
9730;DHT22;4904;49.152;11.004;2023-07-31T11:04:33;20.80;99.90
9730;DHT22;4904;49.152;11.004;2023-07-31T11:07:01;20.90;99.90
9730;DHT22;4904;49.152;11.004;2023-07-31T11:09:31;21.10;99.90
9730;DHT22;4904;49.152;11.004;2023-07-31T11:11:59;21.00;99.90
9730;DHT22;4904;49.152;11.004;2023-07-31T11:14:27;21.00;99.90
9730;DHT22;4904;49.152;11.004;2023-07-31T11:16:54;21.20;99.90
9730;DHT22;4904;49.152;11.004;2023-07-31T11:19:25;21.40;99.90
9730;DHT22;4904;49.152;11.004;2023-07-31T11:21:52;21.50;99.90
9730;DHT22;4904;49.152;11.004;2023-07-31T11:24:20;21.60;99.90
9730;DHT22;4904;49.152;11.004;2023-07-31T11:26:51;21.50;99.90
9730;DHT22;4904;49.152;11.004;2023-07-31T11:29:18;21.40;99.90
9730;DHT22;4904;49.152;11.004;2023-07-31T11:31:47;21.40;99.90
9730;DHT22;4904;49.152;11.004;2023-07-31T11:34:15;21.30;99.90
9730;DHT22;4904;49.152;11.004;2023-07-31T11:36:54;21.40;99.90
9730;DHT22;4904;49.152;11.004;2023-07-31T11:39:21;21.40;99.90
9730;DHT22;4904;49.152;11.004;2023-07-31T11:41:48;21.50;99.90
9730;DHT22;4904;49.152;11.004;2023-07-31T11:44:15;21.70;99.90
9730;DHT22;4904;49.152;11.004;2023-07-31T11:46:42;21.80;99.90
9730;DHT22;4904;49.152;11.004;2023-07-31T11:49:10;21.70;99.90
9730;DHT22;4904;49.152;11.004;2023-07-31T11:51:37;21.50;99.90
9730;DHT22;4904;49.152;11.004;2023-07-31T11:54:05;21.50;99.90
9730;DHT22;4904;49.152;11.004;2023-07-31T11:56:33;21.50;99.90
9730;DHT22;4904;49.152;11.004;2023-07-31T11:59:01;21.50;99.90
9730;DHT22;4904;49.152;11.004;2023-07-31T12:01:31;21.60;99.90
9730;DHT22;4904;49.152;11.004;2023-07-31T12:03:58;21.60;99.90
9730;DHT22;4904;49.152;11.004;2023-07-31T12:06:33;21.60;99.90
9730;DHT22;4904;49.152;11.004;2023-07-31T12:09:02;21.70;99.90
9730;DHT22;4904;49.152;11.004;2023-07-31T12:11:31;21.60;99.90
9730;DHT22;4904;49.152;11.004;2023-07-31T12:13:58;21.50;99.90
9730;DHT22;4904;49.152;11.004;2023-07-31T12:16:26;21.50;99.90
9730;DHT22;4904;49.152;11.004;2023-07-31T12:18:53;21.60;99.90
9730;DHT22;4904;49.152;11.004;2023-07-31T12:21:20;21.60;99.90
9730;DHT22;4904;49.152;11.004;2023-07-31T12:23:48;21.70;99.90
9730;DHT22;4904;49.152;11.004;2023-07-31T12:26:16;21.90;99.90
9730;DHT22;4904;49.152;11.004;2023-07-31T12:28:46;22.10;99.90
9730;DHT22;4904;49.152;11.004;2023-07-31T12:31:17;22.10;99.90
9730;DHT22;4904;49.152;11.004;2023-07-31T12:33:45;22.20;99.90
9730;DHT22;4904;49.152;11.004;2023-07-31T12:36:14;21.90;99.90
9730;DHT22;4904;49.152;11.004;2023-07-31T12:38:41;22.10;99.90
9730;DHT22;4904;49.152;11.004;2023-07-31T12:41:09;22.10;99.90
9730;DHT22;4904;49.152;11.004;2023-07-31T12:43:37;22.10;99.90
9730;DHT22;4904;49.152;11.004;2023-07-31T12:46:06;22.00;99.90
9730;DHT22;4904;49.152;11.004;2023-07-31T12:48:33;22.00;99.90
9730;DHT22;4904;49.152;11.004;2023-07-31T12:51:01;22.20;99.90
9730;DHT22;4904;49.152;11.004;2023-07-31T12:53:28;22.20;99.90
9730;DHT22;4904;49.152;11.004;2023-07-31T12:55:55;22.10;99.90
9730;DHT22;4904;49.152;11.004;2023-07-31T12:58:22;22.00;99.90
9730;DHT22;4904;49.152;11.004;2023-07-31T13:00:50;21.90;99.90
9730;DHT22;4904;49.152;11.004;2023-07-31T13:03:18;21.90;99.90
9730;DHT22;4904;49.152;11.004;2023-07-31T13:05:45;21.90;99.90
9730;DHT22;4904;49.152;11.004;2023-07-31T13:08:14;21.90;99.90
9730;DHT22;4904;49.152;11.004;2023-07-31T13:10:43;22.10;99.90
9730;DHT22;4904;49.152;11.004;2023-07-31T13:13:10;22.10;99.90
9730;DHT22;4904;49.152;11.004;2023-07-31T13:15:37;22.20;99.90
9730;DHT22;4904;49.152;11.004;2023-07-31T13:18:04;22.20;99.90
9730;DHT22;4904;49.152;11.004;2023-07-31T13:20:32;22.20;99.90
9730;DHT22;4904;49.152;11.004;2023-07-31T13:22:59;22.10;99.90
9730;DHT22;4904;49.152;11.004;2023-07-31T13:25:26;22.20;99.90
9730;DHT22;4904;49.152;11.004;2023-07-31T13:27:53;22.20;99.90
9730;DHT22;4904;49.152;11.004;2023-07-31T13:30:20;22.20;99.90
9730;DHT22;4904;49.152;11.004;2023-07-31T13:32:47;22.30;99.90
9730;DHT22;4904;49.152;11.004;2023-07-31T13:35:15;22.20;99.90
9730;DHT22;4904;49.152;11.004;2023-07-31T13:37:43;22.40;99.90
9730;DHT22;4904;49.152;11.004;2023-07-31T13:40:11;22.40;99.90
9730;DHT22;4904;49.152;11.004;2023-07-31T13:42:38;22.40;99.90
9730;DHT22;4904;49.152;11.004;2023-07-31T13:45:05;22.50;99.90
9730;DHT22;4904;49.152;11.004;2023-07-31T13:47:32;22.40;99.90
9730;DHT22;4904;49.152;11.004;2023-07-31T13:49:59;22.40;99.90
9730;DHT22;4904;49.152;11.004;2023-07-31T13:52:26;22.50;99.90
9730;DHT22;4904;49.152;11.004;2023-07-31T13:54:55;22.50;99.90
9730;DHT22;4904;49.152;11.004;2023-07-31T13:57:22;22.50;99.90
9730;DHT22;4904;49.152;11.004;2023-07-31T13:59:49;22.50;99.90
9730;DHT22;4904;49.152;11.004;2023-07-31T14:02:16;22.60;99.90
9730;DHT22;4904;49.152;11.004;2023-07-31T14:04:44;22.60;99.90
9730;DHT22;4904;49.152;11.004;2023-07-31T14:07:10;22.50;99.90
9730;DHT22;4904;49.152;11.004;2023-07-31T14:09:37;22.60;99.90
9730;DHT22;4904;49.152;11.004;2023-07-31T14:12:06;22.60;99.90
9730;DHT22;4904;49.152;11.004;2023-07-31T14:14:33;22.70;99.90
9730;DHT22;4904;49.152;11.004;2023-07-31T14:17:00;22.60;99.90
9730;DHT22;4904;49.152;11.004;2023-07-31T14:19:28;22.30;99.90
9730;DHT22;4904;49.152;11.004;2023-07-31T14:21:55;22.40;99.90
9730;DHT22;4904;49.152;11.004;2023-07-31T14:24:22;22.40;99.90
9730;DHT22;4904;49.152;11.004;2023-07-31T14:26:49;22.30;99.90
9730;DHT22;4904;49.152;11.004;2023-07-31T14:29:18;22.30;99.90
9730;DHT22;4904;49.152;11.004;2023-07-31T14:31:46;22.20;99.90
9730;DHT22;4904;49.152;11.004;2023-07-31T14:34:13;22.00;99.90
9730;DHT22;4904;49.152;11.004;2023-07-31T14:36:39;22.00;99.90
9730;DHT22;4904;49.152;11.004;2023-07-31T14:39:06;22.00;99.90
9730;DHT22;4904;49.152;11.004;2023-07-31T14:41:33;21.90;99.90
9730;DHT22;4904;49.152;11.004;2023-07-31T14:44:00;22.00;99.90
9730;DHT22;4904;49.152;11.004;2023-07-31T14:46:29;21.90;99.90
9730;DHT22;4904;49.152;11.004;2023-07-31T14:48:56;21.90;99.90
9730;DHT22;4904;49.152;11.004;2023-07-31T14:51:22;22.00;99.90
9730;DHT22;4904;49.152;11.004;2023-07-31T14:53:49;22.00;99.90
9730;DHT22;4904;49.152;11.004;2023-07-31T14:56:17;22.00;99.90
9730;DHT22;4904;49.152;11.004;2023-07-31T14:58:44;22.60;99.90
9730;DHT22;4904;49.152;11.004;2023-07-31T15:01:11;22.10;99.90
9730;DHT22;4904;49.152;11.004;2023-07-31T15:03:39;22.10;99.90
9730;DHT22;4904;49.152;11.004;2023-07-31T15:06:07;22.20;99.90
9730;DHT22;4904;49.152;11.004;2023-07-31T15:08:34;22.20;99.90
9730;DHT22;4904;49.152;11.004;2023-07-31T15:11:02;22.20;99.90
9730;DHT22;4904;49.152;11.004;2023-07-31T15:13:29;22.20;99.90
9730;DHT22;4904;49.152;11.004;2023-07-31T15:15:56;22.10;99.90
9730;DHT22;4904;49.152;11.004;2023-07-31T15:18:23;22.00;99.90
9730;DHT22;4904;49.152;11.004;2023-07-31T15:20:54;22.10;99.90
9730;DHT22;4904;49.152;11.004;2023-07-31T15:23:21;22.00;99.90
9730;DHT22;4904;49.152;11.004;2023-07-31T15:25:49;21.90;99.90
9730;DHT22;4904;49.152;11.004;2023-07-31T15:28:16;21.90;99.90
9730;DHT22;4904;49.152;11.004;2023-07-31T15:30:43;21.80;99.90
9730;DHT22;4904;49.152;11.004;2023-07-31T15:33:10;21.80;99.90
9730;DHT22;4904;49.152;11.004;2023-07-31T15:35:37;21.80;99.90
9730;DHT22;4904;49.152;11.004;2023-07-31T15:38:06;21.80;99.90
9730;DHT22;4904;49.152;11.004;2023-07-31T15:40:33;21.80;99.90
9730;DHT22;4904;49.152;11.004;2023-07-31T15:43:00;21.70;99.90
9730;DHT22;4904;49.152;11.004;2023-07-31T15:45:28;21.70;99.90
9730;DHT22;4904;49.152;11.004;2023-07-31T15:47:55;21.70;99.90
9730;DHT22;4904;49.152;11.004;2023-07-31T15:50:22;21.70;99.90